Auburn, California
Current Conditions -  °F | °C
As of 1:35 AM on Saturday 01 Nov 2014 (Local Time) from KAUN Reporting Station
Overcast Overcast  
Wind Chill: 50°   Ceiling: 3200
Heat Index: 50°   Visibility: 7mi
Dew Point: 50°   Wind: 7mph
Humidity: 100%   Direction: 180°S
Pressure: 29.7"   Gusts: NA
Location:  38.9°N, 121.07°W
Report Text: KAUN 010835Z AUTO 18006KT 7SM SCT005 BKN032 OVC044 10/10 A2970 RMK AO1
Loading
Personal Weather Stations






























Interactive Weather Map
Tropical Storm Tracking
New forecast layout! Learn more

10-Day Weather Forecast

Advertisements
Track Severe Weather on mobile